Time;durP1;ratioP1;P1;durP2;ratioP2;P2;SDS_P1;SDS_P2;PMS_P1;PMS_P2;Temp;Humidity;BMP_temperature;BMP_pressure;BME280_temperature;BME280_humidity;BME280_pressure;Samples;Min_cycle;Max_cycle;Signal;HPM_P1;HPM_P2
2022/10/20 00:01:28;;;;;;;10.00;4.65;;;;;;;12.65;85.06;100818.23;1863110;77;21084;-56
2022/10/20 00:03:57;;;;;;;10.25;4.15;;;;;;;12.65;85.00;100810.30;1865364;76;21047;-56
2022/10/20 00:06:29;;;;;;;7.85;3.87;;;;;;;12.67;85.08;100809.77;1907504;74;21112;-56
2022/10/20 00:08:59;;;;;;;5.62;3.52;;;;;;;12.69;85.03;100806.59;1894921;76;21103;-58
2022/10/20 00:11:30;;;;;;;7.30;3.22;;;;;;;12.72;84.97;100802.45;1904255;74;21107;-57
2022/10/20 00:14:00;;;;;;;7.80;3.62;;;;;;;12.77;84.86;100800.09;1890546;76;21031;-55
2022/10/20 00:16:30;;;;;;;6.30;3.40;;;;;;;12.81;84.63;100799.01;1921003;74;20983;-56
2022/10/20 00:18:59;;;;;;;6.22;2.98;;;;;;;12.84;84.37;100797.55;1916782;74;21014;-56
2022/10/20 00:21:29;;;;;;;6.17;3.00;;;;;;;12.84;84.17;100794.44;1934113;74;20999;-56
2022/10/20 00:24:00;;;;;;;6.45;2.62;;;;;;;12.85;84.01;100792.64;1907490;74;21534;-57
2022/10/20 00:26:31;;;;;;;5.08;3.10;;;;;;;12.85;83.84;100790.00;1904327;74;21010;-56
2022/10/20 00:29:02;;;;;;;8.30;2.70;;;;;;;12.85;83.72;100787.36;1910532;74;21055;-57
2022/10/20 00:31:31;;;;;;;7.08;3.05;;;;;;;12.85;83.55;100783.39;1915805;75;21027;-55
2022/10/20 00:34:00;;;;;;;5.33;3.17;;;;;;;12.83;83.39;100780.81;1909069;75;21048;-56
2022/10/20 00:36:29;;;;;;;8.80;2.85;;;;;;;12.83;83.24;100783.46;1931043;74;21129;-56
2022/10/20 00:39:00;;;;;;;6.58;3.10;;;;;;;12.82;83.13;100784.41;1934745;72;21057;-55
2022/10/20 00:41:30;;;;;;;6.90;2.70;;;;;;;12.81;83.00;100789.28;1934900;74;20998;-56
2022/10/20 00:44:01;;;;;;;6.47;2.60;;;;;;;12.81;82.89;100789.28;1928241;74;21575;-56
2022/10/20 00:46:33;;;;;;;7.12;3.33;;;;;;;12.80;82.82;100786.71;1895764;74;21018;-56
2022/10/20 00:49:04;;;;;;;4.25;2.70;;;;;;;12.78;82.76;100785.94;1904978;75;21501;-56
2022/10/20 00:51:35;;;;;;;6.75;2.62;;;;;;;12.77;82.72;100785.56;1922003;73;21140;-56
2022/10/20 00:54:09;;;;;;;6.17;2.95;;;;;;;12.75;82.69;100779.87;1863025;77;21041;-56
2022/10/20 00:56:41;;;;;;;4.55;2.72;;;;;;;12.72;82.66;100783.97;1861932;76;21146;-56
2022/10/20 00:59:13;;;;;;;4.87;2.67;;;;;;;12.70;82.62;100785.83;1816828;79;21027;-56
2022/10/20 01:01:43;;;;;;;12.30;4.08;;;;;;;12.68;82.58;100785.05;1817514;77;21068;-56
2022/10/20 01:04:12;;;;;;;16.45;4.83;;;;;;;12.67;82.60;100788.63;1891149;74;21467;-56
2022/10/20 01:09:31;;;;;;;7.20;4.20;;;;;;;12.63;82.87;100785.72;1871984;76;21051;-61
2022/10/20 01:12:05;;;;;;;6.58;3.62;;;;;;;12.62;82.96;100778.73;1878409;76;21015;-61
2022/10/20 01:14:43;;;;;;;7.28;3.52;;;;;;;12.62;82.87;100791.95;1865025;76;21098;-60
2022/10/20 01:17:31;;;;;;;7.05;3.40;;;;;;;12.64;82.80;100784.80;1866007;75;21452;-58
2022/10/20 01:20:25;;;;;;;4.87;2.72;;;;;;;12.68;82.61;100782.87;1849820;76;21035;-58
2022/10/20 01:23:21;;;;;;;7.75;2.95;;;;;;;12.73;82.34;100787.02;1868939;76;21072;-59
2022/10/20 01:26:13;;;;;;;9.23;4.22;;;;;;;12.77;82.10;100790.37;1846620;78;21059;-58
2022/10/20 01:28:44;;;;;;;10.30;4.08;;;;;;;12.78;81.79;100788.13;1848298;76;21506;-59
2022/10/20 01:31:16;;;;;;;10.25;4.67;;;;;;;12.79;81.75;100782.37;1828137;78;21040;-58
2022/10/20 01:34:03;;;;;;;7.20;4.35;;;;;;;12.79;81.70;100783.22;1844042;78;21130;-56
2022/10/20 01:36:40;;;;;;;6.28;4.62;;;;;;;12.78;81.71;100780.65;1845721;77;21560;-59
2022/10/20 01:39:14;;;;;;;6.35;3.22;;;;;;;12.78;81.62;100785.94;1848477;76;21127;-60
2022/10/20 01:41:52;;;;;;;7.33;3.27;;;;;;;12.80;81.50;100789.36;1845162;78;21488;-59
2022/10/20 01:44:23;;;;;;;9.10;3.40;;;;;;;12.81;81.33;100782.68;1845507;78;21038;-59
2022/10/20 01:46:54;;;;;;;7.90;2.50;;;;;;;12.82;81.14;100784.84;1858382;76;21078;-59
2022/10/20 01:49:24;;;;;;;7.85;3.10;;;;;;;12.84;81.01;100784.34;1878660;76;21492;-58
2022/10/20 01:51:54;;;;;;;8.73;3.37;;;;;;;12.83;80.90;100786.10;1864552;75;21441;-58
2022/10/20 01:54:29;;;;;;;9.18;3.92;;;;;;;12.83;80.80;100778.17;1909533;74;21483;-57
2022/10/20 01:57:07;;;;;;;5.40;3.47;;;;;;;12.81;80.68;100773.44;1884341;76;21004;-61
2022/10/20 02:00:01;;;;;;;10.43;4.53;;;;;;;12.81;80.63;100775.23;1900594;75;21176;-60
2022/10/20 02:02:40;;;;;;;6.83;3.33;;;;;;;12.78;80.54;100772.72;1920563;74;21046;-60
2022/10/20 02:05:28;;;;;;;9.58;3.55;;;;;;;12.77;80.50;100780.27;1838570;74;21501;-58
2022/10/20 02:08:05;;;;;;;9.18;3.60;;;;;;;12.75;80.45;100774.58;1920727;75;21063;-58
2022/10/20 02:10:36;;;;;;;6.97;3.37;;;;;;;12.73;80.43;100779.09;1919245;74;21126;-57
2022/10/20 02:13:07;;;;;;;7.25;3.42;;;;;;;12.73;80.43;100782.20;1866174;74;21180;-57
2022/10/20 02:15:39;;;;;;;6.90;3.70;;;;;;;12.71;80.45;100779.63;1846108;78;21051;-58
2022/10/20 02:18:10;;;;;;;6.70;3.08;;;;;;;12.70;80.50;100776.58;1851349;76;21075;-60
2022/10/20 02:20:42;;;;;;;8.90;3.85;;;;;;;12.70;80.54;100778.38;1878365;76;21145;-61
2022/10/20 02:23:11;;;;;;;6.55;4.03;;;;;;;12.70;80.49;100774.41;1854028;76;21056;-60
2022/10/20 02:25:41;;;;;;;4.85;3.00;;;;;;;12.70;80.44;100766.02;1846101;77;21075;-61
2022/10/20 02:28:13;;;;;;;9.58;3.80;;;;;;;12.70;80.40;100768.66;1845948;77;21138;-61
2022/10/20 02:30:43;;;;;;;7.40;2.95;;;;;;;12.70;80.39;100771.30;1870413;76;21113;-57
2022/10/20 02:33:13;;;;;;;6.35;2.37;;;;;;;12.69;80.39;100766.96;1868285;76;21035;-59
2022/10/20 02:35:44;;;;;;;3.70;2.22;;;;;;;12.70;80.34;100773.94;1932242;74;21092;-58
2022/10/20 02:38:13;;;;;;;6.08;2.77;;;;;;;12.70;80.29;100772.62;1932599;74;21059;-59
2022/10/20 02:40:42;;;;;;;6.67;2.42;;;;;;;12.72;80.18;100776.52;1933278;74;21047;-57
2022/10/20 02:43:10;;;;;;;5.67;2.27;;;;;;;12.73;80.06;100773.80;1933180;74;21120;-58
2022/10/20 02:45:39;;;;;;;4.33;2.65;;;;;;;12.76;79.89;100775.43;1886559;74;21114;-59
2022/10/20 02:48:11;;;;;;;5.97;2.17;;;;;;;12.78;79.79;100776.69;1845959;78;21692;-58
2022/10/20 02:50:40;;;;;;;4.47;2.30;;;;;;;12.79;79.65;100779.73;1846064;77;21095;-57
2022/10/20 02:53:08;;;;;;;4.15;1.90;;;;;;;12.81;79.59;100784.48;1845969;78;21125;-60
2022/10/20 02:55:37;;;;;;;6.05;2.17;;;;;;;12.80;79.56;100782.75;1850254;76;21165;-58
2022/10/20 02:58:06;;;;;;;5.47;2.90;;;;;;;12.79;79.52;100782.37;1846289;78;21504;-57
2022/10/20 03:00:34;;;;;;;3.58;2.30;;;;;;;12.79;79.53;100785.02;1846202;77;21104;-56
2022/10/20 03:03:03;;;;;;;4.72;2.00;;;;;;;12.75;79.54;100781.66;1846269;78;21092;-57
2022/10/20 03:05:32;;;;;;;8.15;3.30;;;;;;;12.73;79.53;100780.88;1851574;76;21104;-59
2022/10/20 03:08:01;;;;;;;6.62;2.70;;;;;;;12.72;79.57;100772.08;1884836;76;21049;-59
2022/10/20 03:10:30;;;;;;;6.08;3.05;;;;;;;12.70;79.61;100777.91;1879763;76;21165;-59
2022/10/20 03:12:59;;;;;;;7.85;3.35;;;;;;;12.68;79.65;100764.38;1849445;76;21145;-57
2022/10/20 03:15:28;;;;;;;5.12;3.10;;;;;;;12.67;79.64;100769.27;1846797;78;21051;-58
2022/10/20 03:17:56;;;;;;;6.12;3.25;;;;;;;12.64;79.60;100754.91;1849534;76;21102;-58
2022/10/20 03:20:25;;;;;;;6.58;2.60;;;;;;;12.59;79.60;100753.78;1878821;76;21051;-57
2022/10/20 03:22:54;;;;;;;5.15;2.50;;;;;;;12.53;79.62;100753.61;1878692;76;21142;-58
2022/10/20 03:25:23;;;;;;;4.70;2.42;;;;;;;12.46;79.54;100760.58;1847139;78;21123;-58
2022/10/20 03:27:52;;;;;;;5.03;2.55;;;;;;;12.38;79.55;100753.48;1847156;78;21041;-57
2022/10/20 03:30:21;;;;;;;5.60;2.75;;;;;;;12.27;79.69;100758.78;1850589;76;21088;-61
2022/10/20 03:32:50;;;;;;;6.15;3.30;;;;;;;12.20;79.82;100761.78;1851566;76;21136;-60
2022/10/20 03:35:19;;;;;;;6.42;2.67;;;;;;;12.11;79.93;100755.97;1847043;78;21033;-59
2022/10/20 03:37:49;;;;;;;9.18;3.35;;;;;;;12.04;80.11;100749.25;1846671;76;21154;-59
2022/10/20 03:40:18;;;;;;;6.83;2.80;;;;;;;11.95;80.03;100749.66;1848161;76;21120;-58
2022/10/20 03:42:47;;;;;;;6.53;3.05;;;;;;;11.82;80.02;100746.68;1860863;76;21188;-58
2022/10/20 03:45:16;;;;;;;7.35;2.77;;;;;;;11.71;80.08;100751.14;1879013;76;21118;-57
2022/10/20 03:47:45;;;;;;;8.15;2.42;;;;;;;11.61;80.25;100750.28;1857316;76;21463;-58
2022/10/20 03:50:15;;;;;;;6.70;2.42;;;;;;;11.54;80.35;100744.39;1847265;78;21128;-60
2022/10/20 03:52:44;;;;;;;4.97;2.65;;;;;;;11.47;80.47;100738.98;1847218;78;21077;-59
2022/10/20 03:55:13;;;;;;;6.17;3.05;;;;;;;11.42;80.67;100738.32;1847223;78;21060;-58
2022/10/20 03:57:42;;;;;;;10.85;3.65;;;;;;;11.41;81.15;100737.47;1847216;78;21053;-58
2022/10/20 04:00:12;;;;;;;5.97;2.85;;;;;;;11.41;81.36;100730.88;1853346;76;21044;-59
2022/10/20 04:03:01;;;;;;;8.78;3.10;;;;;;;11.41;81.62;100726.92;1878382;76;21113;-61
2022/10/20 04:05:31;;;;;;;7.33;2.75;;;;;;;11.39;81.53;100730.09;1854251;77;21087;-58
2022/10/20 04:07:59;;;;;;;7.35;3.40;;;;;;;11.37;81.56;100726.20;1847035;78;21494;-58
2022/10/20 04:10:28;;;;;;;5.42;2.87;;;;;;;11.37;82.12;100729.30;1840457;78;21033;-59
2022/10/20 04:13:01;;;;;;;6.62;3.10;;;;;;;11.39;82.42;100732.73;1832963;77;21025;-59
2022/10/20 04:15:33;;;;;;;7.87;4.28;;;;;;;11.41;82.34;100732.20;1832890;77;21139;-58
2022/10/20 04:18:01;;;;;;;8.85;3.50;;;;;;;11.43;82.50;100725.08;1848376;76;21023;-56
2022/10/20 04:20:30;;;;;;;6.67;3.62;;;;;;;11.48;82.67;100718.30;1850581;76;21025;-59
2022/10/20 04:23:00;;;;;;;7.53;3.30;;;;;;;11.55;82.78;100723.23;1888125;75;21050;-56
2022/10/20 04:25:29;;;;;;;7.72;3.05;;;;;;;11.65;82.86;100717.56;1910368;75;21446;-56
2022/10/20 04:28:02;;;;;;;6.17;3.85;;;;;;;11.74;82.97;100717.16;1835008;77;21075;-56
2022/10/20 04:30:31;;;;;;;4.87;2.72;;;;;;;11.82;82.83;100716.34;1834686;78;21082;-58
2022/10/20 04:33:00;;;;;;;7.15;3.08;;;;;;;11.90;82.53;100724.82;1834792;78;21161;-60
2022/10/20 04:35:30;;;;;;;7.10;2.67;;;;;;;11.97;82.26;100730.69;1851233;75;21229;-58
2022/10/20 04:37:59;;;;;;;8.83;4.00;;;;;;;12.02;82.02;100730.47;1847234;78;21118;-57
2022/10/20 04:40:28;;;;;;;8.60;4.00;;;;;;;12.06;81.82;100734.23;1857344;76;21105;-59
2022/10/20 04:42:59;;;;;;;7.10;3.52;;;;;;;12.06;81.73;100732.03;1865945;77;21047;-56
2022/10/20 04:45:28;;;;;;;9.90;5.10;;;;;;;12.05;82.07;100740.89;1866032;77;21039;-58
2022/10/20 04:47:56;;;;;;;9.33;3.70;;;;;;;12.09;82.03;100743.78;1865953;77;21067;-57
2022/10/20 04:50:25;;;;;;;8.10;3.95;;;;;;;12.16;81.98;100743.91;1865473;75;21057;-57
2022/10/20 04:53:01;;;;;;;12.45;5.12;;;;;;;12.25;81.88;100745.27;1865040;76;21075;-57
2022/10/20 04:55:30;;;;;;;15.95;4.97;;;;;;;12.36;82.07;100746.95;1865554;76;21091;-56
2022/10/20 04:57:59;;;;;;;8.80;4.12;;;;;;;12.52;82.10;100747.07;1848665;76;21047;-58
2022/10/20 05:00:28;;;;;;;8.58;4.05;;;;;;;12.72;81.99;100755.37;1865731;76;21086;-57
2022/10/20 05:02:57;;;;;;;9.25;4.80;;;;;;;12.93;81.84;100748.22;1863313;75;21011;-57
2022/10/20 05:05:26;;;;;;;6.10;3.33;;;;;;;13.11;81.63;100751.28;1892363;75;21070;-59
2022/10/20 05:07:54;;;;;;;6.85;3.98;;;;;;;13.23;81.41;100759.53;1888251;75;21132;-53
2022/10/20 05:10:23;;;;;;;8.83;3.70;;;;;;;13.34;81.31;100765.64;1898877;75;21043;-57
2022/10/20 05:12:53;;;;;;;16.40;3.60;;;;;;;13.36;81.12;100775.20;1896288;75;21023;-57
2022/10/20 05:15:21;;;;;;;7.75;3.27;;;;;;;13.38;81.11;100783.06;1891562;75;21146;-59
2022/10/20 05:17:50;;;;;;;9.03;4.58;;;;;;;13.37;81.11;100790.16;1896703;74;21104;-48
2022/10/20 05:20:19;;;;;;;11.55;5.35;;;;;;;13.37;81.16;100790.16;1900513;74;21038;-53
2022/10/20 05:22:48;;;;;;;10.60;5.12;;;;;;;13.38;81.29;100796.29;1901916;74;21020;-54
2022/10/20 05:25:17;;;;;;;12.65;5.83;;;;;;;13.39;81.41;100797.54;1900668;75;21040;-52
2022/10/20 05:27:45;;;;;;;17.48;5.85;;;;;;;13.39;81.39;100807.23;1898573;75;21044;-59
2022/10/20 05:30:14;;;;;;;17.90;7.15;;;;;;;13.38;81.36;100803.75;1897823;75;21180;-60
2022/10/20 05:32:46;;;;;;;17.65;7.37;;;;;;;13.36;81.31;100809.58;1898896;74;21071;-60
2022/10/20 05:35:14;;;;;;;17.42;7.58;;;;;;;13.35;81.21;100812.30;1898041;75;21103;-59
2022/10/20 05:37:43;;;;;;;14.73;7.78;;;;;;;13.31;81.08;100808.47;1901033;74;21557;-58
2022/10/20 05:40:13;;;;;;;15.40;7.83;;;;;;;13.28;80.88;100827.59;1920954;75;21140;-58
2022/10/20 05:42:41;;;;;;;19.85;8.90;;;;;;;13.24;80.51;100822.05;1920886;75;21460;-59
2022/10/20 05:45:10;;;;;;;21.42;9.90;;;;;;;13.21;80.22;100823.53;1920823;75;21034;-56
2022/10/20 05:47:39;;;;;;;21.57;9.83;;;;;;;13.19;80.07;100828.05;1915293;74;21040;-56
2022/10/20 05:50:09;;;;;;;16.80;9.20;;;;;;;13.17;79.86;100835.16;1905050;75;21048;-56
2022/10/20 05:52:38;;;;;;;14.90;8.48;;;;;;;13.17;79.71;100841.78;1907878;75;21112;-56
2022/10/20 05:55:08;;;;;;;21.10;8.83;;;;;;;13.13;79.68;100845.91;1907929;75;21038;-56
2022/10/20 05:57:37;;;;;;;18.50;8.63;;;;;;;13.12;79.67;100857.41;1907792;75;21104;-56
2022/10/20 06:00:06;;;;;;;20.50;8.85;;;;;;;13.11;79.66;100862.31;1907859;75;21128;-57
2022/10/20 06:02:37;;;;;;;18.00;8.55;;;;;;;13.11;79.59;100871.56;1907617;75;21437;-56
2022/10/20 06:05:06;;;;;;;15.45;8.18;;;;;;;13.09;79.56;100862.83;1908693;75;21063;-55
2022/10/20 06:07:35;;;;;;;15.75;7.53;;;;;;;13.08;79.54;100874.34;1910694;75;21063;-60
2022/10/20 06:10:04;;;;;;;18.70;8.00;;;;;;;13.10;79.47;100879.09;1902700;75;21103;-59
2022/10/20 06:12:35;;;;;;;14.93;8.23;;;;;;;13.09;79.47;100865.47;1897786;75;21102;-60
2022/10/20 06:15:04;;;;;;;15.63;7.70;;;;;;;13.10;79.47;100872.48;1900471;75;21043;-61
2022/10/20 06:17:33;;;;;;;16.90;7.37;;;;;;;13.13;79.44;100874.99;1895759;75;21043;-58
2022/10/20 06:20:01;;;;;;;16.48;7.75;;;;;;;13.20;79.37;100868.08;1911665;75;21007;-60
2022/10/20 06:22:30;;;;;;;14.95;7.22;;;;;;;13.30;79.21;100881.27;1910650;74;21038;-60
2022/10/20 06:24:59;;;;;;;14.75;6.78;;;;;;;13.47;78.97;100877.35;1907766;75;21161;-58
2022/10/20 06:27:27;;;;;;;15.15;6.92;;;;;;;13.53;78.90;100876.66;1910635;75;21142;-57
2022/10/20 06:29:56;;;;;;;13.55;6.10;;;;;;;13.53;78.80;100874.02;1910656;75;21037;-58
2022/10/20 06:32:24;;;;;;;17.67;7.08;;;;;;;13.53;78.79;100875.34;1910692;75;21087;-57
2022/10/20 06:34:53;;;;;;;14.78;7.50;;;;;;;13.60;78.71;100870.99;1910720;75;21079;-58
2022/10/20 06:37:22;;;;;;;9.15;4.60;;;;;;;13.76;78.65;100884.33;1910779;74;21145;-58
2022/10/20 06:39:51;;;;;;;11.75;4.55;;;;;;;13.83;78.43;100884.86;1892574;75;21047;-57
2022/10/20 06:42:19;;;;;;;9.50;5.37;;;;;;;13.86;78.28;100886.88;1897785;75;21176;-56
2022/10/20 06:44:49;;;;;;;10.00;4.00;;;;;;;13.85;77.74;100880.34;1898002;75;21027;-57
2022/10/20 06:47:18;;;;;;;7.87;3.35;;;;;;;13.84;77.57;100878.17;1897853;75;21036;-57
2022/10/20 06:49:48;;;;;;;6.92;3.17;;;;;;;13.88;76.76;100887.66;1897649;75;21043;-58
2022/10/20 06:52:17;;;;;;;6.03;3.42;;;;;;;14.04;76.83;100882.93;1906660;75;21055;-57
2022/10/20 06:54:46;;;;;;;7.80;2.80;;;;;;;14.26;76.24;100880.03;1908001;75;21158;-57
2022/10/20 06:57:14;;;;;;;9.50;2.85;;;;;;;14.52;75.62;100881.30;1910241;75;21031;-57
2022/10/20 06:59:43;;;;;;;6.95;2.17;;;;;;;14.92;74.73;100883.16;1910822;75;21101;-57
2022/10/20 07:02:11;;;;;;;5.05;1.75;;;;;;;15.20;73.68;100882.95;1910638;75;21024;-58
2022/10/20 07:04:41;;;;;;;4.40;1.77;;;;;;;15.91;72.78;100885.55;1910719;75;21102;-57
2022/10/20 07:07:09;;;;;;;3.87;1.65;;;;;;;16.54;71.17;100895.91;1911533;74;21055;-57
2022/10/20 07:09:38;;;;;;;5.92;1.80;;;;;;;16.77;69.66;100885.64;1910994;75;21051;-58
2022/10/20 07:12:07;;;;;;;6.87;2.75;;;;;;;16.70;67.72;100897.61;1920882;73;21483;-57
2022/10/20 07:14:36;;;;;;;5.28;1.55;;;;;;;16.87;67.43;100896.58;1913144;73;21034;-61
2022/10/20 07:17:05;;;;;;;2.00;1.12;;;;;;;17.28;66.23;100889.95;1921916;73;21035;-61
2022/10/20 07:19:34;;;;;;;4.67;1.30;;;;;;;17.52;65.75;100897.27;1928467;73;21116;-62
2022/10/20 07:22:02;;;;;;;4.97;1.42;;;;;;;17.54;65.71;100903.38;1953628;73;21007;-61
2022/10/20 07:24:31;;;;;;;3.90;1.37;;;;;;;17.53;65.29;100897.17;1958697;73;21455;-63
2022/10/20 07:26:59;;;;;;;2.33;1.15;;;;;;;17.35;65.23;100903.25;1958695;73;21145;-61
2022/10/20 07:29:28;;;;;;;3.00;1.40;;;;;;;17.05;64.97;100911.37;1958582;73;21128;-61
2022/10/20 07:31:57;;;;;;;3.83;1.10;;;;;;;16.66;64.14;100913.38;1927186;73;21128;-57
2022/10/20 07:34:26;;;;;;;4.60;1.70;;;;;;;16.34;64.57;100907.75;1923757;74;21062;-57
2022/10/20 07:36:56;;;;;;;3.55;1.40;;;;;;;16.23;64.48;100913.31;1923799;74;21074;-58
2022/10/20 07:39:25;;;;;;;3.55;1.40;;;;;;;16.17;64.91;100919.36;1917169;73;21633;-59
2022/10/20 07:41:54;;;;;;;3.70;1.40;;;;;;;16.17;64.26;100922.02;1917928;75;21116;-59
2022/10/20 07:44:23;;;;;;;6.12;1.67;;;;;;;16.10;64.62;100922.03;1920514;74;21027;-59
2022/10/20 07:46:52;;;;;;;4.20;1.60;;;;;;;16.01;64.55;100917.27;1923725;74;21128;-58
2022/10/20 07:49:21;;;;;;;2.90;1.37;;;;;;;16.63;63.84;100914.88;1923722;74;21120;-60
2022/10/20 07:51:50;;;;;;;3.33;1.52;;;;;;;18.57;60.73;100912.88;1924644;73;21015;-60
2022/10/20 07:54:18;;;;;;;3.22;1.20;;;;;;;20.27;56.88;100900.91;1919260;73;21124;-62
2022/10/20 07:56:48;;;;;;;4.28;1.60;;;;;;;21.50;54.97;100888.45;1898040;74;21473;-61
2022/10/20 07:59:17;;;;;;;3.52;1.55;;;;;;;22.04;53.42;100896.49;1908142;74;21014;-60
2022/10/20 08:01:45;;;;;;;4.47;1.20;;;;;;;22.61;52.49;100898.34;1923811;74;21077;-61
2022/10/20 08:04:14;;;;;;;6.20;2.10;;;;;;;23.50;50.77;100890.44;1887566;74;21123;-55
2022/10/20 08:06:45;;;;;;;3.25;1.37;;;;;;;24.08;47.59;100893.61;1921052;73;21038;-53
2022/10/20 08:09:13;;;;;;;3.92;1.17;;;;;;;24.40;45.19;100893.73;1896203;73;21143;-62
2022/10/20 08:11:42;;;;;;;4.12;1.32;;;;;;;24.98;45.21;100894.88;1899592;73;21465;-56
2022/10/20 08:14:11;;;;;;;2.37;1.22;;;;;;;25.09;44.49;100893.00;1923823;74;21117;-57
2022/10/20 08:16:40;;;;;;;2.60;1.20;;;;;;;25.04;43.31;100887.54;1923687;74;21046;-57
2022/10/20 08:19:08;;;;;;;2.42;1.07;;;;;;;25.28;43.55;100894.23;1903862;74;21137;-58
2022/10/20 08:21:37;;;;;;;2.35;1.22;;;;;;;25.54;42.45;100889.45;1889021;76;21137;-61
2022/10/20 08:24:06;;;;;;;5.87;1.10;;;;;;;25.47;42.19;100887.88;1921852;73;21058;-61
2022/10/20 08:26:35;;;;;;;3.10;1.37;;;;;;;24.94;41.43;100890.80;1923655;74;21055;-61
2022/10/20 08:29:04;;;;;;;3.20;1.20;;;;;;;25.17;40.79;100880.44;1922850;74;21045;-59
2022/10/20 08:31:33;;;;;;;3.87;1.15;;;;;;;25.91;39.49;100881.67;1916940;75;21124;-64
2022/10/20 08:34:01;;;;;;;5.40;1.27;;;;;;;26.48;38.35;100863.18;1915388;73;21039;-53
2022/10/20 08:36:30;;;;;;;10.32;1.60;;;;;;;26.70;37.33;100859.09;1948559;73;21523;-55
2022/10/20 08:39:01;;;;;;;2.08;1.15;;;;;;;26.91;35.99;100854.64;1958643;73;21035;-67
2022/10/20 08:41:37;;;;;;;3.12;1.12;;;;;;;27.16;35.99;100858.23;1958745;73;21031;-63
2022/10/20 08:44:07;;;;;;;2.87;1.10;;;;;;;27.39;34.85;100857.65;1958583;73;21478;-64
2022/10/20 08:46:38;;;;;;;1.20;0.88;;;;;;;27.85;34.93;100854.42;1958507;73;21055;-64
2022/10/20 08:49:12;;;;;;;3.62;1.50;;;;;;;27.94;33.80;100839.91;1939295;73;21058;-63
2022/10/20 08:51:42;;;;;;;4.05;1.50;;;;;;;27.62;31.72;100840.23;1921695;73;21116;-63
2022/10/20 08:54:23;;;;;;;;;;;;;;;;;;;;;
2022/10/20 08:56:47;;;;;;;2.30;1.32;;;;;;;27.54;30.58;100820.80;1918941;73;21534;-63
2022/10/20 08:59:36;;;;;;;2.07;1.50;;;;;;;26.96;28.02;100831.16;1923973;74;21485;-63
2022/10/20 09:02:17;;;;;;;2.22;1.30;;;;;;;26.55;29.66;100843.98;1890399;74;21055;-64
2022/10/20 09:04:52;;;;;;;2.98;1.30;;;;;;;26.96;30.40;100845.54;1926004;73;21067;-61
2022/10/20 09:07:38;;;;;;;5.15;1.27;;;;;;;25.72;31.98;100833.66;1912137;74;21038;-61
2022/10/20 09:10:16;;;;;;;1.90;1.00;;;;;;;24.90;32.70;100835.55;1886729;75;21070;-61
2022/10/20 09:12:51;;;;;;;2.58;1.20;;;;;;;24.41;33.34;100840.28;1886659;75;21496;-56
2022/10/20 09:15:21;;;;;;;3.67;1.22;;;;;;;23.35;33.95;100834.05;1891660;75;21027;-58
2022/10/20 09:18:02;;;;;;;1.47;0.85;;;;;;;22.29;35.63;100846.50;1898357;75;21156;-61
2022/10/20 09:20:54;;;;;;;2.22;0.98;;;;;;;21.70;36.96;100844.41;1888015;76;21142;-58
2022/10/20 09:23:29;;;;;;;2.20;0.82;;;;;;;21.43;38.21;100857.75;1877019;75;21129;-60
2022/10/20 09:25:57;;;;;;;4.00;1.80;;;;;;;21.31;38.65;100853.44;1889382;74;21161;-63
2022/10/20 09:28:28;;;;;;;2.20;1.27;;;;;;;20.93;38.54;100850.22;1899773;75;21011;-59
2022/10/20 09:30:57;;;;;;;3.77;1.20;;;;;;;20.72;39.00;100858.16;1850509;76;21081;-60
2022/10/20 09:33:29;;;;;;;5.87;1.40;;;;;;;20.85;39.08;100851.84;1888367;75;21466;-59
2022/10/20 09:36:06;;;;;;;5.92;1.20;;;;;;;20.62;39.53;100863.91;1901028;75;21334;-59
2022/10/20 09:38:36;;;;;;;5.95;1.90;;;;;;;20.61;39.69;100863.52;1864941;77;21504;-59
2022/10/20 09:41:16;;;;;;;2.98;1.57;;;;;;;20.49;39.73;100859.10;1873369;75;21003;-49
2022/10/20 09:44:00;;;;;;;3.42;1.22;;;;;;;20.57;39.99;100868.23;1873746;76;21054;-51
2022/10/20 09:46:31;;;;;;;2.58;1.27;;;;;;;20.81;39.99;100864.11;1873801;76;21034;-51
2022/10/20 09:49:01;;;;;;;4.22;1.82;;;;;;;21.06;39.78;100855.42;1873126;76;21082;-59
2022/10/20 09:51:31;;;;;;;2.27;1.27;;;;;;;21.52;39.44;100861.04;1906618;74;21226;-61
2022/10/20 09:54:07;;;;;;;4.45;1.80;;;;;;;21.19;39.00;100853.94;1900019;74;21462;-59
2022/10/20 09:56:39;;;;;;;2.40;1.32;;;;;;;20.50;39.26;100862.16;1887630;75;21094;-58
2022/10/20 09:59:26;;;;;;;2.95;1.15;;;;;;;20.03;40.07;100857.73;1896238;75;21514;-59
2022/10/20 10:02:04;;;;;;;4.90;1.50;;;;;;;20.62;39.62;100862.56;1896281;75;21098;-59
2022/10/20 10:04:38;;;;;;;1.72;1.30;;;;;;;21.53;38.21;100856.05;1893217;75;21035;-57
2022/10/20 10:07:12;;;;;;;4.45;1.62;;;;;;;22.49;38.08;100853.32;1901696;75;21094;-58
2022/10/20 10:09:42;;;;;;;4.03;1.35;;;;;;;23.74;36.09;100840.75;1865519;76;21154;-58
2022/10/20 10:12:14;;;;;;;3.62;1.57;;;;;;;23.44;34.32;100841.27;1851567;76;21201;-58
2022/10/20 10:14:57;;;;;;;5.90;2.08;;;;;;;23.29;34.36;100843.52;1865654;76;21043;-57
2022/10/20 10:17:34;;;;;;;2.98;1.65;;;;;;;23.21;35.28;100851.44;1875788;76;21011;-49
2022/10/20 10:20:06;;;;;;;4.33;1.82;;;;;;;22.63;36.39;100860.14;1875553;76;21078;-47
2022/10/20 10:22:36;;;;;;;4.28;1.98;;;;;;;21.84;37.47;100866.89;1859463;76;21533;-46
2022/10/20 10:25:07;;;;;;;2.17;1.30;;;;;;;21.24;37.87;100870.98;1870173;75;21079;-47
2022/10/20 10:27:37;;;;;;;4.12;1.60;;;;;;;21.66;37.53;100871.11;1888656;75;21009;-47
2022/10/20 10:30:20;;;;;;;1.75;1.42;;;;;;;22.19;35.27;100861.68;1894276;75;21546;-51
2022/10/20 10:32:49;;;;;;;3.90;1.70;;;;;;;22.66;34.77;100867.43;1887706;76;21029;-48
2022/10/20 10:35:33;;;;;;;4.90;1.60;;;;;;;22.96;33.74;100871.05;1888204;76;21127;-47
2022/10/20 10:38:02;;;;;;;3.80;1.72;;;;;;;22.78;33.34;100867.33;1888233;76;21472;-47
2022/10/20 10:40:45;;;;;;;3.80;2.05;;;;;;;21.76;34.65;100865.33;1887936;75;21037;-50
2022/10/20 10:43:32;;;;;;;4.17;1.40;;;;;;;21.96;35.45;100869.84;1843600;78;21079;-62
2022/10/20 10:46:18;;;;;;;4.50;1.80;;;;;;;22.82;35.00;100879.52;1863072;75;21080;-50
2022/10/20 10:49:08;;;;;;;1.90;1.12;;;;;;;23.60;34.47;100876.98;1876619;76;20994;-49
2022/10/20 10:51:57;;;;;;;3.70;1.35;;;;;;;24.04;33.66;100872.03;1888638;75;21085;-51
2022/10/20 10:54:40;;;;;;;6.92;1.35;;;;;;;24.32;33.72;100874.80;1885103;75;21136;-49
2022/10/20 10:57:27;;;;;;;5.53;1.35;;;;;;;23.44;33.96;100880.22;1853111;76;21497;-54
2022/10/20 10:59:58;;;;;;;3.65;1.37;;;;;;;21.93;35.39;100883.53;1875128;76;21603;-56
2022/10/20 11:02:36;;;;;;;6.50;1.15;;;;;;;20.50;36.25;100892.91;1870862;75;21584;-54
2022/10/20 11:05:24;;;;;;;2.58;1.25;;;;;;;20.29;37.20;100893.63;1874793;76;21559;-50
2022/10/20 11:08:04;;;;;;;3.77;1.72;;;;;;;21.09;36.38;100871.25;1871666;76;21493;-52
2022/10/20 11:10:52;;;;;;;3.42;1.50;;;;;;;21.55;34.90;100870.17;1864339;75;21198;-50
2022/10/20 11:13:34;;;;;;;7.42;1.25;;;;;;;21.90;34.34;100875.73;1834586;77;21058;-51
2022/10/20 11:16:08;;;;;;;2.67;1.35;;;;;;;22.10;33.99;100875.88;1847387;76;21112;-50
2022/10/20 11:18:48;;;;;;;4.37;1.35;;;;;;;21.40;35.23;100883.47;1866388;75;21047;-52
2022/10/20 11:21:35;;;;;;;2.05;0.95;;;;;;;20.66;36.69;100894.78;1848966;76;21039;-56
2022/10/20 11:24:15;;;;;;;2.50;1.12;;;;;;;19.79;37.64;100895.19;1852260;76;21184;-53
2022/10/20 11:26:49;;;;;;;5.03;1.00;;;;;;;19.18;38.66;100896.55;1872732;76;21555;-54
2022/10/20 11:29:19;;;;;;;2.97;1.47;;;;;;;18.71;39.36;100895.44;1868637;76;21077;-48
2022/10/20 11:32:09;;;;;;;3.92;1.17;;;;;;;18.96;39.47;100891.05;1854627;76;21055;-51
2022/10/20 11:34:49;;;;;;;2.33;0.80;;;;;;;19.28;39.11;100890.89;1847438;76;21107;-54
2022/10/20 11:37:24;;;;;;;6.95;1.40;;;;;;;19.48;38.94;100881.91;1848106;76;21121;-53
2022/10/20 11:39:56;;;;;;;2.00;1.35;;;;;;;19.61;39.10;100887.19;1855425;76;21082;-47
2022/10/20 11:42:44;;;;;;;2.98;1.17;;;;;;;19.33;39.23;100885.69;1855747;76;21050;-48
2022/10/20 11:45:31;;;;;;;2.65;1.20;;;;;;;18.83;39.84;100889.27;1846443;76;21116;-51
2022/10/20 11:48:21;;;;;;;4.78;1.50;;;;;;;18.36;40.44;100894.76;1852005;75;21031;-48
2022/10/20 11:51:16;;;;;;;6.40;1.87;;;;;;;17.98;41.20;100894.23;1849936;75;21019;-52